1925 NOT_NAMED (1925159N26126)


IBTrACS version v04r00. Visit IBTrACS website for data access.
Please direct all questions to the IBTrACS Q and A forum

Storm track - Intensity - Wind Radii - Intensity Data - Source Data - All data

Summary Information

Storm ID 1925159N26126
Start Jun 7 22Z
End Jun 10 22Z
ATCF IDs
Track status Best track data.

Storm track plot

Map of storm track

Intensity plots

No Intensity information for this storm


Radial wind information

No radial wind information for this storm


Position and Intensity Table

BASIN ISO_TIME_________ NATURE LAT LON
degrees north degrees east
WP 1925-06-07 22:00:00 NR 26.20 125.80
WP 1925-06-08 00:00:00 NR 26.40 125.92
WP 03:00:00 NR 26.69 126.12
WP 06:00:00 NR 26.96 126.34
WP 09:00:00 NR 27.22 126.60
WP 10:00:00 NR 27.30 126.70
WP 12:00:00 NR 27.45 126.91
WP 15:00:00 NR 27.64 127.26
WP 18:00:00 NR 27.79 127.60
WP 21:00:00 NR 27.88 127.91
WP 22:00:00 NR 27.90 128.00
WP 1925-06-09 00:00:00 NR 27.91 128.14
WP 03:00:00 NR 27.89 128.30
WP 06:00:00 NR 27.82 128.43
WP 09:00:00 NR 27.73 128.56
WP 10:00:00 NR 27.70 128.60
WP 12:00:00 NR 27.67 128.67
WP 15:00:00 NR 27.63 128.77
WP 18:00:00 NR 27.56 128.93
WP 21:00:00 NR 27.45 129.18
WP 22:00:00 NR 27.40 129.30
WP 1925-06-10 00:00:00 NR 27.26 129.58
WP 03:00:00 NR 27.01 130.11
WP 06:00:00 NR 26.73 130.75
WP 09:00:00 NR 26.47 131.45
WP 10:00:00 NR 26.40 131.70
WP 12:00:00 NR 26.27 132.21
WP 15:00:00 NR 26.13 132.99
WP 18:00:00 NR 26.02 133.80
WP 21:00:00 NR 25.93 134.62
WP 22:00:00 NR 25.90 134.90

Source Information

Agency Information
USA
TOKYO
CMA
HKO
NEWDELHI
REUNION
BOM
NADI
WELLINGTON
DS824
TD9636 cons_worldwide_trop_cyclone_18710101-19891231-003:Line=7340
TD9635
NEUMANN
MLC

All available IBTrACS Data

SEASON BASIN SUBBASIN ISO_TIME_________ NATURE LAT LON DIST2LAND LANDFALL IFLAG USA SSHS TD9636 LAT TD9636 LON TD9636 STAGE STORM SPEED STORM DIR
Year degrees north degrees east km km 1 degrees north degrees east kts degrees
1925 WP MM 1925-06-07 22:00:00 NR 26.20 125.80 403 403 __________O___ -1 26.20 125.80 2 7 30
1925 WP MM 1925-06-08 00:00:00 NR 26.40 125.92 420 420 __________P___ -1 26.40 125.92 2 7 31
1925 WP MM 03:00:00 NR 26.69 126.12 451 451 __________P___ -1 26.69 126.12 2 7 33
1925 WP MM 06:00:00 NR 26.96 126.34 483 490 __________P___ -1 26.96 126.34 2 7 39
1925 WP MM 09:00:00 NR 27.22 126.60 502 502 __________P___ -1 27.22 126.60 2 7 43
1925 WP MM 10:00:00 NR 27.30 126.70 506 506 __________O___ -1 27.30 126.70 2 7 50
1925 WP MM 12:00:00 NR 27.45 126.91 519 490 __________P___ -1 27.45 126.91 2 7 55
1925 WP MM 15:00:00 NR 27.64 127.26 490 455 __________P___ -1 27.64 127.26 2 7 61
1925 WP MM 18:00:00 NR 27.79 127.60 455 430 __________P___ -1 27.79 127.60 2 6 68
1925 WP MM 21:00:00 NR 27.88 127.91 430 425 __________P___ -1 27.88 127.91 2 6 73
1925 WP MM 22:00:00 NR 27.90 128.00 425 420 __________O___ -1 27.90 128.00 2 4 81
1925 WP MM 1925-06-09 00:00:00 NR 27.91 128.14 420 411 __________P___ -1 27.91 128.14 2 3 93
1925 WP MM 03:00:00 NR 27.89 128.30 411 407 __________P___ -1 27.89 128.30 2 3 111
1925 WP MM 06:00:00 NR 27.82 128.43 417 413 __________P___ -1 27.82 128.43 2 3 124
1925 WP MM 09:00:00 NR 27.73 128.56 420 420 __________P___ -1 27.73 128.56 2 3 128
1925 WP MM 10:00:00 NR 27.70 128.60 420 416 __________O___ -1 27.70 128.60 2 2 120
1925 WP MM 12:00:00 NR 27.67 128.67 416 416 __________P___ -1 27.67 128.67 2 2 116
1925 WP MM 15:00:00 NR 27.63 128.77 421 417 __________P___ -1 27.63 128.77 2 3 117
1925 WP MM 18:00:00 NR 27.56 128.93 417 416 __________P___ -1 27.56 128.93 2 4 116
1925 WP MM 21:00:00 NR 27.45 129.18 427 424 __________P___ -1 27.45 129.18 2 6 116
1925 WP MM 22:00:00 NR 27.40 129.30 424 421 __________O___ -1 27.40 129.30 2 8 118
1925 WP MM 1925-06-10 00:00:00 NR 27.26 129.58 426 433 __________P___ -1 27.26 129.58 2 10 119
1925 WP MM 03:00:00 NR 27.01 130.11 450 449 __________P___ -1 27.01 130.11 2 12 117
1925 WP MM 06:00:00 NR 26.73 130.75 480 480 __________P___ -1 26.73 130.75 2 13 114
1925 WP MM 09:00:00 NR 26.47 131.45 508 508 __________P___ -1 26.47 131.45 2 14 111
1925 WP MM 10:00:00 NR 26.40 131.70 522 522 __________O___ -1 26.40 131.70 2 14 107
1925 WP MM 12:00:00 NR 26.27 132.21 544 544 __________P___ -1 26.27 132.21 2 14 103
1925 WP MM 15:00:00 NR 26.13 132.99 591 591 __________P___ -1 26.13 132.99 2 15 100
1925 WP MM 18:00:00 NR 26.02 133.80 634 634 __________P___ -1 26.02 133.80 2 15 98
1925 WP MM 21:00:00 NR 25.93 134.62 684 690 __________P___ -1 25.93 134.62 2 15 97
1925 WP MM 22:00:00 NR 25.90 134.90 701 __________O___ -1 25.90 134.90 2 15 97